Time;durP1;ratioP1;P1;durP2;ratioP2;P2;SDS_P1;SDS_P2;PMS_P1;PMS_P2;Temp;Humidity;BMP_temperature;BMP_pressure;BME280_temperature;BME280_humidity;BME280_pressure;Samples;Min_cycle;Max_cycle;Signal;HPM_P1;HPM_P2
2021/03/31 00:01:19;;;;;;;13.98;7.55;;;9.00;65.50;;;;;;5091642;28;20034;-63
2021/03/31 00:03:45;;;;;;;13.43;7.13;;;9.00;65.90;;;;;;5092645;28;20032;-64
2021/03/31 00:06:11;;;;;;;11.07;6.40;;;9.00;66.00;;;;;;5091770;28;20400;-65
2021/03/31 00:08:38;;;;;;;13.70;6.95;;;9.00;66.00;;;;;;5092625;28;20047;-65
2021/03/31 00:11:04;;;;;;;12.38;6.65;;;9.00;66.10;;;;;;5092849;28;20377;-63
2021/03/31 00:13:30;;;;;;;13.75;7.03;;;8.90;66.20;;;;;;5091227;28;20032;-64
2021/03/31 00:15:56;;;;;;;11.23;6.70;;;8.80;66.30;;;;;;5091783;28;20370;-65
2021/03/31 00:18:23;;;;;;;9.68;6.47;;;8.80;66.60;;;;;;5091760;28;20063;-63
2021/03/31 00:20:50;;;;;;;13.30;6.68;;;8.70;66.70;;;;;;5092119;28;20038;-63
2021/03/31 00:23:20;;;;;;;11.95;6.05;;;8.70;66.90;;;;;;5090323;28;20461;-65
2021/03/31 00:25:45;;;;;;;11.98;6.93;;;8.60;67.10;;;;;;5092452;28;20059;-61
2021/03/31 00:28:12;;;;;;;13.82;7.25;;;8.60;67.40;;;;;;5091218;28;20036;-66
2021/03/31 00:30:39;;;;;;;11.70;6.22;;;8.60;68.20;;;;;;5092127;28;20334;-65
2021/03/31 00:33:05;;;;;;;12.95;7.53;;;8.50;68.00;;;;;;5092099;28;20385;-65
2021/03/31 00:35:31;;;;;;;13.40;6.43;;;8.50;68.00;;;;;;5091603;28;20028;-66
2021/03/31 00:37:57;;;;;;;12.50;6.22;;;8.50;68.10;;;;;;5092058;28;20107;-61
2021/03/31 00:40:30;;;;;;;12.18;5.97;;;8.40;68.40;;;;;;5091424;28;20123;-64
2021/03/31 00:42:56;;;;;;;15.85;7.45;;;8.30;68.70;;;;;;5091571;28;20051;-64
2021/03/31 00:45:22;;;;;;;11.07;7.50;;;8.30;69.30;;;;;;5091020;28;20052;-63
2021/03/31 00:47:47;;;;;;;12.85;7.30;;;8.30;69.60;;;;;;5091948;28;20060;-64
2021/03/31 00:50:18;;;;;;;11.15;7.07;;;8.30;69.60;;;;;;5090952;28;20040;-65
2021/03/31 00:52:46;;;;;;;10.90;6.60;;;8.40;69.90;;;;;;5091712;28;20497;-64
2021/03/31 00:55:15;;;;;;;12.32;7.07;;;8.30;69.80;;;;;;5090488;28;20035;-66
2021/03/31 00:57:41;;;;;;;12.13;6.90;;;8.30;69.90;;;;;;5091671;28;20036;-66
2021/03/31 01:00:09;;;;;;;9.18;6.38;;;8.20;69.90;;;;;;5091743;28;20111;-66
2021/03/31 01:02:36;;;;;;;13.18;7.00;;;8.10;70.20;;;;;;5091778;28;20032;-66
2021/03/31 01:05:24;;;;;;;12.55;6.50;;;8.10;70.80;;;;;;5073819;28;20081;-64
2021/03/31 01:07:51;;;;;;;9.57;6.63;;;8.10;70.70;;;;;;5073077;28;20074;-65
2021/03/31 01:10:19;;;;;;;11.95;6.90;;;8.10;70.80;;;;;;5090191;28;20020;-66
2021/03/31 01:13:17;;;;;;;12.32;7.03;;;8.10;71.00;;;;;;5072746;28;20024;-64
2021/03/31 01:15:57;;;;;;;11.77;6.55;;;8.00;70.90;;;;;;5089897;28;20368;-62
2021/03/31 01:18:32;;;;;;;12.80;6.57;;;7.90;71.00;;;;;;5088712;28;20140;-66
2021/03/31 01:21:35;;;;;;;10.80;6.35;;;7.90;71.30;;;;;;5088507;28;20535;-64
2021/03/31 01:24:44;;;;;;;15.30;7.28;;;7.80;71.60;;;;;;5088934;28;20066;-65
2021/03/31 01:27:18;;;;;;;13.05;6.97;;;7.70;72.20;;;;;;5087590;28;20119;-66
2021/03/31 01:29:58;;;;;;;10.85;6.63;;;7.70;72.70;;;;;;5089651;28;20122;-63
2021/03/31 01:33:03;;;;;;;12.63;6.90;;;7.60;72.90;;;;;;5088697;28;20417;-63
2021/03/31 01:35:30;;;;;;;13.15;6.72;;;7.60;73.20;;;;;;5081504;28;20047;-62
2021/03/31 01:38:04;;;;;;;10.55;6.70;;;7.50;73.30;;;;;;5089957;28;20027;-63
2021/03/31 01:40:35;;;;;;;15.50;7.60;;;7.50;73.60;;;;;;5088208;28;20111;-64
2021/03/31 01:43:06;;;;;;;11.80;6.22;;;7.40;74.00;;;;;;5093809;28;20081;-66
2021/03/31 01:45:34;;;;;;;12.82;6.68;;;7.40;74.20;;;;;;5092319;28;20028;-65
2021/03/31 01:48:16;;;;;;;14.60;8.48;;;7.30;74.30;;;;;;5094473;28;20040;-64
2021/03/31 01:50:44;;;;;;;14.18;7.28;;;7.30;74.60;;;;;;5092843;28;20020;-65
2021/03/31 01:53:11;;;;;;;11.05;6.97;;;7.30;74.70;;;;;;5081688;28;20040;-66
2021/03/31 01:55:38;;;;;;;18.55;8.52;;;7.20;74.80;;;;;;5083404;28;20052;-66
2021/03/31 01:58:05;;;;;;;14.23;7.75;;;7.20;75.50;;;;;;5084041;28;20469;-64
2021/03/31 02:00:33;;;;;;;14.15;6.95;;;7.20;75.90;;;;;;5093726;28;20028;-65
2021/03/31 02:02:59;;;;;;;14.13;7.75;;;7.20;75.60;;;;;;5094509;28;20024;-62
2021/03/31 02:05:27;;;;;;;13.50;7.60;;;7.20;75.60;;;;;;5092725;28;20070;-66
2021/03/31 02:07:53;;;;;;;12.75;7.25;;;7.10;75.60;;;;;;5080048;28;20581;-65
2021/03/31 02:10:22;;;;;;;13.25;6.97;;;7.10;75.70;;;;;;5092003;28;20107;-62
2021/03/31 02:12:48;;;;;;;15.05;7.57;;;7.10;75.90;;;;;;5083308;28;20028;-66
2021/03/31 02:15:19;;;;;;;13.68;8.00;;;7.00;76.00;;;;;;5093374;28;20496;-66
2021/03/31 02:17:46;;;;;;;12.50;7.25;;;7.00;76.90;;;;;;5093871;28;20134;-66
2021/03/31 02:20:16;;;;;;;13.00;7.47;;;7.00;76.60;;;;;;5092661;28;20114;-66
2021/03/31 02:22:42;;;;;;;13.15;8.20;;;7.00;76.60;;;;;;5093739;28;20092;-63
2021/03/31 02:25:11;;;;;;;13.77;8.30;;;7.00;76.80;;;;;;5093446;28;20035;-66
2021/03/31 02:27:38;;;;;;;18.30;8.65;;;7.00;77.00;;;;;;5093104;28;20508;-65
2021/03/31 02:30:07;;;;;;;16.23;7.50;;;7.00;76.80;;;;;;5093330;28;20040;-65
2021/03/31 02:32:34;;;;;;;13.15;7.88;;;7.00;76.90;;;;;;5092579;28;20024;-64
2021/03/31 02:35:02;;;;;;;14.85;8.18;;;7.00;77.30;;;;;;5093251;28;20039;-64
2021/03/31 02:37:28;;;;;;;18.80;7.63;;;7.00;77.10;;;;;;5092244;28;20056;-64
2021/03/31 02:39:55;;;;;;;13.52;7.82;;;7.00;77.40;;;;;;5092577;28;20116;-63
2021/03/31 02:42:24;;;;;;;12.20;7.47;;;6.90;77.50;;;;;;5091122;28;20036;-64
2021/03/31 02:44:52;;;;;;;12.77;7.53;;;6.90;77.60;;;;;;5090480;28;20038;-65
2021/03/31 02:47:23;;;;;;;13.15;7.70;;;6.90;77.90;;;;;;5091791;28;20077;-63
2021/03/31 02:49:53;;;;;;;17.30;8.23;;;6.80;77.90;;;;;;5093231;28;20035;-64
2021/03/31 02:52:21;;;;;;;14.00;8.50;;;6.80;78.00;;;;;;5092276;28;20028;-64
2021/03/31 02:54:48;;;;;;;14.00;7.72;;;6.70;78.50;;;;;;5093437;28;20042;-63
2021/03/31 02:57:14;;;;;;;15.02;7.47;;;6.70;78.30;;;;;;5091840;28;20053;-66
2021/03/31 02:59:44;;;;;;;16.42;8.23;;;6.70;78.40;;;;;;5092326;28;20032;-64
2021/03/31 03:02:10;;;;;;;16.60;9.95;;;6.60;79.00;;;;;;5093504;28;20036;-66
2021/03/31 03:04:39;;;;;;;13.95;8.30;;;6.60;79.60;;;;;;5093215;28;20043;-62
2021/03/31 03:07:08;;;;;;;19.95;8.15;;;6.60;79.50;;;;;;5093811;28;20052;-63
2021/03/31 03:09:35;;;;;;;14.75;7.75;;;6.60;79.40;;;;;;5093023;28;20043;-64
2021/03/31 03:12:01;;;;;;;15.77;7.90;;;6.60;79.40;;;;;;5075600;28;20047;-64
2021/03/31 03:14:29;;;;;;;15.90;8.00;;;6.60;79.20;;;;;;5093031;28;20066;-66
2021/03/31 03:16:55;;;;;;;12.52;7.80;;;6.60;79.20;;;;;;5093380;28;20457;-66
2021/03/31 03:19:20;;;;;;;13.20;7.97;;;6.60;79.20;;;;;;5093433;28;20035;-62
2021/03/31 03:21:48;;;;;;;14.10;7.97;;;6.50;79.30;;;;;;5093532;28;20069;-64
2021/03/31 03:24:15;;;;;;;13.35;7.60;;;6.50;79.50;;;;;;5093355;28;20028;-66
2021/03/31 03:26:41;;;;;;;12.73;7.63;;;6.40;79.70;;;;;;5093150;28;20043;-63
2021/03/31 03:29:08;;;;;;;14.50;8.23;;;6.40;80.70;;;;;;5093495;28;20032;-64
2021/03/31 03:31:35;;;;;;;13.85;8.80;;;6.40;80.70;;;;;;5092339;28;20051;-63
2021/03/31 03:34:03;;;;;;;13.90;7.65;;;6.40;80.60;;;;;;5075637;28;20024;-66
2021/03/31 03:36:29;;;;;;;17.50;8.13;;;6.40;80.60;;;;;;5092444;28;20031;-64
2021/03/31 03:38:55;;;;;;;17.40;7.85;;;6.30;80.80;;;;;;5093287;28;20105;-62
2021/03/31 03:41:21;;;;;;;15.52;8.70;;;6.30;81.20;;;;;;5092556;28;20469;-63
2021/03/31 03:43:46;;;;;;;13.98;7.63;;;6.30;81.20;;;;;;5093508;28;20369;-63
2021/03/31 03:46:13;;;;;;;15.70;7.70;;;6.30;81.20;;;;;;5092519;28;20449;-65
2021/03/31 03:48:39;;;;;;;16.85;7.97;;;6.20;81.40;;;;;;5092566;28;20492;-61
2021/03/31 03:51:09;;;;;;;13.27;7.65;;;6.20;81.50;;;;;;5074145;28;20028;-61
2021/03/31 03:53:36;;;;;;;13.98;7.57;;;6.10;81.80;;;;;;5091356;28;20036;-66
2021/03/31 03:56:04;;;;;;;15.10;8.23;;;6.10;82.40;;;;;;5089259;28;20062;-64
2021/03/31 03:58:29;;;;;;;14.02;7.70;;;6.10;82.90;;;;;;5091599;28;20032;-64
2021/03/31 04:00:58;;;;;;;15.75;8.45;;;6.00;83.00;;;;;;5092759;28;20024;-63
2021/03/31 04:03:24;;;;;;;17.73;8.88;;;6.00;83.50;;;;;;5091031;28;20043;-63
2021/03/31 04:05:50;;;;;;;14.57;8.43;;;6.00;84.20;;;;;;5092766;28;20024;-65
2021/03/31 04:08:15;;;;;;;15.77;7.97;;;6.00;84.30;;;;;;5091766;28;20061;-67
2021/03/31 04:10:43;;;;;;;15.45;8.68;;;5.90;84.30;;;;;;5074645;28;20038;-65
2021/03/31 04:13:10;;;;;;;17.05;8.98;;;5.90;84.80;;;;;;5092281;28;20129;-66
2021/03/31 04:15:37;;;;;;;17.08;9.02;;;5.90;85.00;;;;;;5091395;28;20240;-64
2021/03/31 04:18:04;;;;;;;15.10;8.02;;;5.90;85.20;;;;;;5092264;28;20491;-63
2021/03/31 04:20:31;;;;;;;14.25;8.23;;;5.90;84.60;;;;;;5093258;28;20370;-63
2021/03/31 04:22:57;;;;;;;14.80;8.25;;;5.90;84.90;;;;;;5107874;28;20465;-66
2021/03/31 04:25:25;;;;;;;15.73;9.10;;;5.90;85.10;;;;;;5091413;28;20032;-64
2021/03/31 04:27:52;;;;;;;17.65;9.70;;;5.90;85.40;;;;;;5092067;28;20028;-62
2021/03/31 04:30:20;;;;;;;16.60;9.50;;;5.90;85.60;;;;;;5092006;28;20035;-64
2021/03/31 04:32:49;;;;;;;13.43;7.95;;;5.90;85.00;;;;;;5091956;28;20552;-63
2021/03/31 04:35:20;;;;;;;14.70;8.40;;;5.90;85.70;;;;;;5091416;28;20106;-66
2021/03/31 04:37:46;;;;;;;14.98;8.00;;;5.90;85.30;;;;;;5083966;28;20078;-66
2021/03/31 04:40:14;;;;;;;13.57;7.85;;;5.90;85.00;;;;;;5092373;28;20439;-64
2021/03/31 04:42:40;;;;;;;15.88;8.95;;;5.90;85.10;;;;;;5091536;28;20043;-64
2021/03/31 04:45:09;;;;;;;17.90;9.55;;;5.90;85.30;;;;;;5091477;28;20043;-63
2021/03/31 04:47:36;;;;;;;17.33;9.00;;;5.90;85.80;;;;;;5090447;28;20107;-63
2021/03/31 04:50:03;;;;;;;13.18;8.13;;;5.90;86.10;;;;;;5092007;28;20468;-66
2021/03/31 04:52:29;;;;;;;15.05;8.13;;;5.90;86.20;;;;;;5091020;28;20020;-64
2021/03/31 04:54:55;;;;;;;15.52;8.82;;;5.90;85.90;;;;;;5073214;28;20427;-64
2021/03/31 04:57:21;;;;;;;17.33;8.15;;;5.80;86.00;;;;;;5091197;28;20043;-65
2021/03/31 04:59:47;;;;;;;18.08;9.05;;;5.80;86.10;;;;;;5091830;28;20032;-64
2021/03/31 05:02:12;;;;;;;15.82;9.15;;;5.90;86.60;;;;;;5073550;28;20070;-65
2021/03/31 05:04:38;;;;;;;15.75;9.55;;;5.80;86.80;;;;;;5090407;28;20111;-63
2021/03/31 05:07:04;;;;;;;14.23;8.57;;;5.90;86.70;;;;;;5091271;28;20047;-63
2021/03/31 05:09:30;;;;;;;14.73;9.13;;;5.90;86.80;;;;;;5090952;28;20401;-66
2021/03/31 05:11:56;;;;;;;18.38;9.43;;;5.90;86.50;;;;;;5091205;28;20031;-65
2021/03/31 05:14:22;;;;;;;18.67;8.50;;;5.90;86.00;;;;;;5090653;28;20027;-65
2021/03/31 05:16:48;;;;;;;17.60;9.10;;;5.90;85.90;;;;;;5090495;28;20028;-63
2021/03/31 05:19:13;;;;;;;19.10;8.93;;;5.90;86.50;;;;;;5090795;28;20060;-66
2021/03/31 05:21:39;;;;;;;14.95;8.88;;;6.00;85.90;;;;;;5090586;28;20055;-64
2021/03/31 05:24:06;;;;;;;13.93;8.38;;;6.10;85.10;;;;;;5092814;28;20051;-63
2021/03/31 05:26:32;;;;;;;16.10;9.40;;;6.20;84.70;;;;;;5072416;28;20405;-66
2021/03/31 05:28:58;;;;;;;15.88;8.88;;;6.20;83.90;;;;;;5090801;28;20032;-66
2021/03/31 05:31:24;;;;;;;19.23;9.02;;;6.30;83.50;;;;;;5090325;28;20103;-64
2021/03/31 05:33:50;;;;;;;16.80;8.80;;;6.30;83.00;;;;;;5090981;28;20449;-64
2021/03/31 05:36:16;;;;;;;14.77;8.45;;;6.40;82.20;;;;;;5091258;28;20095;-63
2021/03/31 05:38:41;;;;;;;22.83;8.30;;;6.50;81.90;;;;;;5090609;28;20032;-62
2021/03/31 05:41:07;;;;;;;13.02;7.88;;;6.60;80.90;;;;;;5089412;28;20103;-63
2021/03/31 05:43:35;;;;;;;17.00;8.73;;;6.70;80.30;;;;;;5089096;28;20024;-64
2021/03/31 05:46:01;;;;;;;20.60;10.77;;;6.70;80.20;;;;;;5090271;28;20024;-65
2021/03/31 05:48:27;;;;;;;27.10;12.13;;;6.80;80.30;;;;;;5071982;28;20411;-64
2021/03/31 05:50:53;;;;;;;28.10;11.07;;;6.90;80.30;;;;;;5091589;28;20024;-63
2021/03/31 05:53:18;;;;;;;20.13;10.43;;;6.90;79.80;;;;;;5084889;28;20459;-66
2021/03/31 05:55:44;;;;;;;20.40;10.13;;;7.00;79.30;;;;;;5072385;28;20024;-66
2021/03/31 05:58:11;;;;;;;21.45;9.77;;;7.00;79.40;;;;;;5091381;28;20130;-64
2021/03/31 06:00:37;;;;;;;20.02;9.27;;;7.10;80.20;;;;;;5072171;28;20260;-66
2021/03/31 06:03:04;;;;;;;14.95;8.32;;;7.20;79.50;;;;;;5090817;28;20024;-65
2021/03/31 06:05:32;;;;;;;15.45;8.30;;;7.30;79.90;;;;;;5090195;28;20096;-69
2021/03/31 06:07:58;;;;;;;17.45;8.73;;;7.40;78.30;;;;;;5090795;28;20064;-66
2021/03/31 06:10:28;;;;;;;19.10;9.75;;;7.50;77.60;;;;;;5088977;28;20071;-66
2021/03/31 06:13:02;;;;;;;17.73;8.40;;;7.60;77.40;;;;;;5090992;28;20415;-65
2021/03/31 06:15:41;;;;;;;19.77;10.10;;;7.60;77.40;;;;;;5071666;28;20028;-64
2021/03/31 06:18:15;;;;;;;21.52;11.48;;;7.60;77.30;;;;;;5072752;28;20024;-66
2021/03/31 06:20:44;;;;;;;19.77;11.02;;;7.60;77.10;;;;;;5082708;28;20389;-66
2021/03/31 06:26:22;;;;;;;18.38;9.80;;;7.80;76.40;;;;;;5076904;28;20435;-64
2021/03/31 06:28:58;;;;;;;19.25;8.85;;;7.90;76.20;;;;;;5084892;28;20032;-64
2021/03/31 06:31:32;;;;;;;21.77;10.52;;;8.00;76.00;;;;;;5089198;28;21318;-66
2021/03/31 06:34:03;;;;;;;20.17;9.70;;;8.10;76.00;;;;;;5095133;28;20028;-65
2021/03/31 06:36:36;;;;;;;20.92;10.00;;;8.30;75.70;;;;;;5086343;28;20039;-66
2021/03/31 06:39:19;;;;;;;19.17;9.77;;;8.30;75.00;;;;;;5094227;28;20073;-65
2021/03/31 06:42:09;;;;;;;22.50;10.52;;;8.50;74.30;;;;;;5060592;28;20410;-64
2021/03/31 06:44:58;;;;;;;;;;;8.70;73.40;;;;;;5074727;28;20047;-64
2021/03/31 06:50:13;;;;;;;17.02;8.88;;;9.00;72.90;;;;;;5093895;28;20028;-64
2021/03/31 06:53:10;;;;;;;15.32;8.00;;;9.10;72.70;;;;;;5092673;28;20024;-66
2021/03/31 06:55:36;;;;;;;13.98;8.00;;;9.20;72.50;;;;;;5059074;28;20052;-67
2021/03/31 06:58:04;;;;;;;17.23;9.05;;;9.20;72.50;;;;;;5094302;28;20422;-65
2021/03/31 07:00:35;;;;;;;14.20;8.05;;;9.20;72.40;;;;;;5092917;28;20040;-66
2021/03/31 07:03:05;;;;;;;11.77;7.38;;;9.20;72.30;;;;;;5093993;28;20024;-64
2021/03/31 07:05:37;;;;;;;14.25;7.95;;;9.30;72.40;;;;;;5093067;28;20024;-66
2021/03/31 07:08:04;;;;;;;20.02;8.15;;;9.30;72.30;;;;;;5085515;28;20055;-65
2021/03/31 07:10:39;;;;;;;16.88;8.25;;;9.30;72.60;;;;;;5091133;28;20032;-65
2021/03/31 07:13:05;;;;;;;12.57;7.57;;;9.30;72.30;;;;;;5093489;28;20027;-65
2021/03/31 07:15:32;;;;;;;21.45;8.02;;;9.40;72.40;;;;;;5090989;28;20481;-66
2021/03/31 07:18:01;;;;;;;17.45;8.98;;;9.50;72.20;;;;;;5094155;28;20024;-66
2021/03/31 07:20:28;;;;;;;20.27;8.55;;;9.50;72.10;;;;;;5092375;28;20357;-66
2021/03/31 07:22:55;;;;;;;15.13;8.32;;;9.60;72.00;;;;;;5092400;28;20032;-66
2021/03/31 07:25:23;;;;;;;13.93;8.23;;;9.70;71.50;;;;;;5093111;28;20468;-67
2021/03/31 07:27:49;;;;;;;12.32;7.15;;;9.80;71.40;;;;;;5093352;28;20032;-64
2021/03/31 07:30:24;;;;;;;15.73;7.57;;;9.90;71.10;;;;;;5098084;28;20042;-65
2021/03/31 07:33:04;;;;;;;18.35;8.43;;;10.00;70.70;;;;;;5102959;28;20094;-66
2021/03/31 07:35:33;;;;;;;16.95;8.25;;;10.20;70.40;;;;;;5092654;28;20039;-66
2021/03/31 07:38:03;;;;;;;16.73;8.50;;;10.30;70.00;;;;;;5092460;28;20032;-66
2021/03/31 07:40:31;;;;;;;18.30;8.97;;;10.50;69.50;;;;;;5091767;28;20038;-66
2021/03/31 07:43:06;;;;;;;17.08;8.45;;;10.70;68.70;;;;;;5074144;28;20274;-64
2021/03/31 07:45:42;;;;;;;16.38;8.57;;;10.80;68.00;;;;;;5091984;28;20056;-65
2021/03/31 07:48:09;;;;;;;18.67;9.02;;;11.00;67.90;;;;;;5092842;28;20029;-64
2021/03/31 07:50:35;;;;;;;18.17;8.70;;;11.10;67.60;;;;;;5091885;28;20384;-66
2021/03/31 07:53:03;;;;;;;16.33;8.57;;;11.20;67.40;;;;;;5092328;28;20024;-64
2021/03/31 07:55:48;;;;;;;14.60;8.25;;;11.40;66.40;;;;;;5091914;28;20107;-66
2021/03/31 07:58:19;;;;;;;19.85;8.75;;;11.50;66.20;;;;;;5074048;28;20032;-64
2021/03/31 08:00:44;;;;;;;;;;;11.60;65.50;;;;;;5092281;28;20036;-65
2021/03/31 08:03:17;;;;;;;20.10;9.32;;;11.80;65.50;;;;;;5077255;28;19950;-65
2021/03/31 08:06:09;;;;;;;16.20;8.27;;;11.90;64.70;;;;;;5091841;28;20071;-66
2021/03/31 08:08:46;;;;;;;20.88;8.63;;;12.00;64.60;;;;;;5091900;28;20032;-66
2021/03/31 08:11:13;;;;;;;21.08;8.75;;;12.10;63.90;;;;;;5092587;28;20020;-63
2021/03/31 08:13:41;;;;;;;16.65;8.63;;;12.40;62.80;;;;;;5091084;28;20607;-67
2021/03/31 08:16:38;;;;;;;19.20;9.30;;;12.50;62.50;;;;;;5092147;28;20073;-65
2021/03/31 08:19:06;;;;;;;20.52;8.70;;;12.60;62.70;;;;;;5059356;28;20443;-64
2021/03/31 08:21:32;;;;;;;17.80;8.77;;;12.70;63.20;;;;;;5091120;28;20457;-67
2021/03/31 08:23:59;;;;;;;16.75;8.50;;;12.80;63.40;;;;;;5092116;28;20056;-65
2021/03/31 08:26:34;;;;;;;18.17;8.85;;;13.00;63.60;;;;;;5091067;28;20505;-66
2021/03/31 08:29:03;;;;;;;17.35;8.20;;;13.10;61.90;;;;;;5075514;28;20081;-64
2021/03/31 08:31:34;;;;;;;24.45;8.77;;;13.30;61.60;;;;;;5090584;28;20070;-66
2021/03/31 08:34:00;;;;;;;16.70;8.77;;;13.40;61.20;;;;;;5100375;28;20024;-65
2021/03/31 08:36:26;;;;;;;15.20;8.55;;;13.60;60.60;;;;;;5099361;28;20062;-64
2021/03/31 08:38:57;;;;;;;18.23;8.15;;;13.80;60.00;;;;;;5091680;28;20064;-66
2021/03/31 08:41:26;;;;;;;18.58;10.13;;;13.90;59.80;;;;;;5090853;28;20401;-67
2021/03/31 08:44:17;;;;;;;22.17;8.73;;;14.00;60.00;;;;;;5091786;28;20077;-66
2021/03/31 08:46:43;;;;;;;14.88;7.95;;;14.20;60.50;;;;;;5067077;28;20518;-66
2021/03/31 08:49:26;;;;;;;19.63;8.20;;;14.50;59.70;;;;;;5091699;28;20028;-65
2021/03/31 08:51:58;;;;;;;15.00;7.55;;;14.70;59.60;;;;;;5091235;28;20085;-64
2021/03/31 08:54:55;;;;;;;16.92;8.60;;;14.80;59.50;;;;;;5089849;28;20036;-64
2021/03/31 08:57:23;;;;;;;17.65;7.68;;;15.10;58.10;;;;;;5091413;28;20499;-65
2021/03/31 08:59:53;;;;;;;14.52;8.35;;;15.30;59.00;;;;;;5091297;28;20389;-63
2021/03/31 09:02:29;;;;;;;14.55;8.25;;;15.50;58.30;;;;;;5090783;28;20111;-65
2021/03/31 09:04:57;;;;;;;22.30;9.38;;;15.70;56.60;;;;;;5084259;28;20102;-64
2021/03/31 09:07:24;;;;;;;18.10;8.52;;;15.90;56.90;;;;;;5089905;28;20044;-65
2021/03/31 09:09:50;;;;;;;19.73;8.02;;;16.10;55.10;;;;;;5091207;28;20067;-64
2021/03/31 09:12:21;;;;;;;22.75;8.88;;;16.20;54.60;;;;;;5091122;28;20044;-63
2021/03/31 09:14:54;;;;;;;30.10;9.65;;;16.30;54.70;;;;;;5090711;28;20028;-63
2021/03/31 09:17:23;;;;;;;25.17;9.15;;;16.50;55.50;;;;;;5090728;28;20504;-65
2021/03/31 09:19:54;;;;;;;16.65;8.40;;;16.80;53.80;;;;;;5090781;28;20028;-63
2021/03/31 09:22:22;;;;;;;18.33;8.50;;;17.00;53.80;;;;;;5091140;28;20046;-66
2021/03/31 09:24:50;;;;;;;18.23;8.45;;;17.20;52.90;;;;;;5090914;28;20040;-64
2021/03/31 09:27:18;;;;;;;22.98;8.75;;;17.40;52.80;;;;;;5091140;28;20024;-62
2021/03/31 09:29:46;;;;;;;20.27;8.68;;;17.50;52.80;;;;;;5072010;28;20020;-64
2021/03/31 09:32:24;;;;;;;15.60;9.27;;;17.70;52.40;;;;;;5090763;28;20099;-64
2021/03/31 09:34:50;;;;;;;17.73;8.73;;;17.90;53.00;;;;;;5091485;28;20043;-63
2021/03/31 09:37:18;;;;;;;15.57;9.07;;;18.00;52.40;;;;;;5097543;28;20020;-64
2021/03/31 09:39:46;;;;;;;19.70;8.55;;;18.20;51.70;;;;;;5093632;28;20464;-64
2021/03/31 09:42:28;;;;;;;20.98;9.38;;;18.30;51.50;;;;;;5091275;28;20050;-64
2021/03/31 09:44:54;;;;;;;14.95;8.52;;;18.30;52.50;;;;;;5091216;28;20024;-64
2021/03/31 09:47:23;;;;;;;18.58;9.15;;;18.40;50.50;;;;;;5072397;28;20028;-65
2021/03/31 09:49:50;;;;;;;18.77;8.68;;;18.60;50.10;;;;;;5090866;28;20077;-67
2021/03/31 09:52:17;;;;;;;17.63;8.90;;;18.70;50.20;;;;;;5090944;28;20020;-65
2021/03/31 09:54:45;;;;;;;24.42;9.60;;;18.80;50.30;;;;;;5071686;28;20778;-65
2021/03/31 09:57:13;;;;;;;23.17;9.10;;;18.90;49.80;;;;;;5091178;28;20028;-64
2021/03/31 09:59:40;;;;;;;17.05;9.50;;;19.00;48.90;;;;;;5090286;28;20043;-65
2021/03/31 10:02:09;;;;;;;18.13;9.80;;;19.00;49.00;;;;;;5092313;28;20040;-65
2021/03/31 10:04:40;;;;;;;29.15;9.30;;;19.10;49.90;;;;;;5094512;28;20113;-66
2021/03/31 10:07:19;;;;;;;25.90;9.25;;;19.20;48.50;;;;;;5093771;28;20051;-66
2021/03/31 10:09:51;;;;;;;24.55;10.32;;;19.20;48.60;;;;;;5093508;28;20043;-62
2021/03/31 10:12:28;;;;;;;18.75;9.57;;;19.30;48.30;;;;;;5076565;28;20489;-65
2021/03/31 10:14:55;;;;;;;19.02;9.85;;;19.50;49.10;;;;;;5092127;28;20101;-65
2021/03/31 10:17:23;;;;;;;24.83;9.82;;;19.70;47.40;;;;;;5076277;28;20138;-66
2021/03/31 10:19:50;;;;;;;16.67;9.30;;;19.80;47.10;;;;;;5094176;28;20544;-63
2021/03/31 10:22:17;;;;;;;19.02;9.10;;;19.90;47.40;;;;;;5094516;28;20388;-63
2021/03/31 10:24:46;;;;;;;17.63;9.13;;;20.00;46.80;;;;;;5093335;28;20030;-64
2021/03/31 10:27:13;;;;;;;24.05;10.35;;;20.10;46.50;;;;;;5093762;28;20036;-62
2021/03/31 10:29:48;;;;;;;18.35;9.60;;;20.40;45.80;;;;;;5075383;28;20032;-64
2021/03/31 10:32:22;;;;;;;16.52;10.07;;;20.50;45.60;;;;;;5094020;28;20116;-66
2021/03/31 10:34:53;;;;;;;27.75;10.68;;;20.60;45.80;;;;;;5093799;28;20040;-64
2021/03/31 10:37:52;;;;;;;19.13;10.98;;;20.60;44.20;;;;;;5075854;28;20036;-66
2021/03/31 10:48:41;;;;;;;18.13;10.38;;;20.90;43.60;;;;;;5085730;28;20035;-61
2021/03/31 10:51:19;;;;;;;16.58;9.95;;;21.00;43.50;;;;;;5093925;28;20047;-64
2021/03/31 10:53:57;;;;;;;20.65;10.98;;;21.10;42.20;;;;;;5093373;28;20078;-66
2021/03/31 10:56:23;;;;;;;19.38;10.13;;;21.30;41.40;;;;;;5084104;28;20840;-67
2021/03/31 10:58:49;;;;;;;23.23;10.40;;;21.40;41.40;;;;;;5093738;28;20457;-64
2021/03/31 11:01:15;;;;;;;21.55;11.38;;;21.50;41.20;;;;;;5075754;28;20032;-64
2021/03/31 11:03:41;;;;;;;21.13;10.98;;;21.80;40.80;;;;;;5092684;28;20031;-65
2021/03/31 11:06:08;;;;;;;17.83;11.13;;;;;;;;;;5093579;28;20520;-65
2021/03/31 11:08:33;;;;;;;20.95;10.35;;;22.20;38.10;;;;;;5074832;28;20387;-64
2021/03/31 11:10:59;;;;;;;21.05;10.32;;;22.50;39.20;;;;;;5072236;28;20031;-63
2021/03/31 11:13:25;;;;;;;22.70;10.82;;;22.70;38.40;;;;;;5092060;28;20090;-66
2021/03/31 11:15:53;;;;;;;15.55;9.32;;;22.80;36.40;;;;;;5094313;28;20043;-65
2021/03/31 11:18:27;;;;;;;23.35;11.23;;;22.90;36.80;;;;;;5076006;28;20028;-63
2021/03/31 11:21:38;;;;;;;15.52;9.90;;;23.20;34.80;;;;;;5087575;28;20032;-64
2021/03/31 11:26:38;;;;;;;24.98;10.27;;;23.70;34.10;;;;;;5092450;28;20070;-66
2021/03/31 11:29:04;;;;;;;16.10;10.63;;;23.80;34.20;;;;;;5093534;28;20449;-65
2021/03/31 11:31:29;;;;;;;16.05;9.80;;;24.10;33.50;;;;;;5092050;28;20024;-62
2021/03/31 11:33:55;;;;;;;16.55;10.00;;;24.40;33.10;;;;;;5093050;28;20024;-65
2021/03/31 11:36:21;;;;;;;18.48;10.27;;;24.60;32.60;;;;;;5093195;28;20449;-67
2021/03/31 11:38:46;;;;;;;20.38;9.70;;;24.70;31.80;;;;;;5092866;28;20050;-66
2021/03/31 11:41:12;;;;;;;16.63;9.80;;;24.90;31.10;;;;;;5093311;28;20075;-66
2021/03/31 11:43:38;;;;;;;20.55;9.68;;;25.20;30.40;;;;;;5095992;28;20031;-65
2021/03/31 11:46:04;;;;;;;17.70;9.30;;;25.30;30.00;;;;;;5099041;28;20164;-65
2021/03/31 11:48:29;;;;;;;14.23;9.65;;;25.60;29.90;;;;;;5092505;28;20142;-66
2021/03/31 11:50:55;;;;;;;24.33;10.77;;;25.80;29.80;;;;;;5092653;28;20038;-65
2021/03/31 11:53:21;;;;;;;17.48;10.05;;;26.20;28.90;;;;;;5091729;28;20024;-68
2021/03/31 11:55:47;;;;;;;18.98;11.57;;;26.20;29.10;;;;;;5074182;28;20028;-65
2021/03/31 11:58:12;;;;;;;16.80;11.00;;;26.30;28.70;;;;;;5092775;28;20062;-65
2021/03/31 12:00:38;;;;;;;14.43;8.90;;;26.30;28.60;;;;;;5092136;28;20040;-66
2021/03/31 12:03:05;;;;;;;14.95;10.07;;;26.30;29.50;;;;;;5092390;28;20020;-65
2021/03/31 12:05:31;;;;;;;18.80;11.68;;;26.40;29.10;;;;;;5091664;28;20028;-66
2021/03/31 12:07:57;;;;;;;16.33;10.77;;;26.60;28.40;;;;;;5092541;28;20119;-64
2021/03/31 12:10:23;;;;;;;18.33;11.27;;;26.50;28.70;;;;;;5091769;28;20111;-66
2021/03/31 12:12:48;;;;;;;21.02;11.45;;;26.60;28.20;;;;;;5091739;28;20032;-66
2021/03/31 12:15:16;;;;;;;17.23;10.45;;;26.60;28.90;;;;;;5074224;28;20024;-65
2021/03/31 12:17:43;;;;;;;15.88;10.80;;;26.60;28.30;;;;;;5083555;28;20107;-66
2021/03/31 12:20:14;;;;;;;17.10;9.85;;;26.60;28.50;;;;;;5092606;28;20468;-66
2021/03/31 12:22:41;;;;;;;19.23;10.27;;;26.80;28.60;;;;;;5091593;28;20499;-63
2021/03/31 12:25:08;;;;;;;15.38;9.48;;;27.10;28.20;;;;;;5091189;28;20465;-64
2021/03/31 12:27:35;;;;;;;17.05;10.32;;;27.20;28.00;;;;;;5090338;28;20032;-66
2021/03/31 12:30:07;;;;;;;17.73;12.35;;;27.30;28.20;;;;;;5091490;28;20046;-66
2021/03/31 12:32:33;;;;;;;18.40;12.63;;;27.50;28.20;;;;;;5091008;28;20032;-62
2021/03/31 12:34:59;;;;;;;18.25;12.52;;;27.50;28.10;;;;;;5091771;28;20538;-66
2021/03/31 12:37:24;;;;;;;17.88;13.20;;;27.40;28.20;;;;;;5091063;28;20554;-66
2021/03/31 12:39:50;;;;;;;17.88;11.57;;;27.60;27.70;;;;;;5092166;28;20036;-65
2021/03/31 12:42:17;;;;;;;16.33;11.00;;;27.80;27.90;;;;;;5091050;28;20444;-65
2021/03/31 12:44:42;;;;;;;17.50;11.23;;;28.20;27.60;;;;;;5090354;28;20587;-66
2021/03/31 12:47:11;;;;;;;17.80;10.88;;;28.50;27.30;;;;;;5092032;28;20016;-64
2021/03/31 12:49:36;;;;;;;17.83;11.20;;;28.80;27.10;;;;;;5091167;28;20028;-64
2021/03/31 12:52:07;;;;;;;17.58;11.95;;;29.00;26.50;;;;;;5091355;28;20035;-63
2021/03/31 12:55:01;;;;;;;25.65;13.20;;;28.90;26.80;;;;;;5072486;28;20032;-66
2021/03/31 12:57:20;;;;;;;18.38;12.88;;;28.50;27.10;;;;;;5091516;28;20039;-65
2021/03/31 12:59:46;;;;;;;18.67;12.15;;;28.50;27.30;;;;;;5090223;28;20093;-65
2021/03/31 13:02:12;;;;;;;18.30;12.15;;;28.30;27.40;;;;;;5091311;28;20423;-67
2021/03/31 13:04:37;;;;;;;18.92;11.75;;;28.20;27.10;;;;;;5090924;28;20032;-65
2021/03/31 13:07:04;;;;;;;17.92;11.57;;;28.30;27.30;;;;;;5091158;28;20047;-65
2021/03/31 13:09:30;;;;;;;19.55;12.23;;;28.50;27.20;;;;;;5090796;28;20115;-66